This is the latest recevied weather packets stored in our database for station/object LRCV. If no packets are shown the sender has not sent any weather packets the latest 10 day(s).
| Time | Temp. | Humidity | Pressure | Rain* | Wind** | Luminosity | Snow |
|---|---|---|---|---|---|---|---|
| 1777732421 | 11.11° C | 77% | 1021 hPa | - | - | - | - |
| 1777731519 | 11.11° C | 77% | 1021 hPa | - | - | - | - |
| 1777730622 | 11.11° C | 77% | 1021 hPa | - | - | - | - |
| 1777728822 | 16.11° C | 39% | 1020 hPa | - | - | - | - |
| 1777727921 | 17.22° C | 39% | 1020 hPa | - | - | - | - |
| 1777727022 | 17.22° C | 39% | 1020 hPa | - | - | - | - |
| 1777726122 | 16.11° C | 39% | 1020 hPa | - | - | - | - |
| 1777725221 | 16.11° C | 39% | 1020 hPa | - | - | - | - |
| 1777724321 | 15° C | 45% | 1021 hPa | - | - | - | - |
| 1777723429 | 15° C | 45% | 1021 hPa | - | - | - | - |
| 1777722518 | 15° C | 42% | 1021 hPa | - | - | - | - |
| 1777721621 | 15° C | 42% | 1021 hPa | - | - | - | - |
| 1777720721 | 15° C | 42% | 1022 hPa | - | - | - | - |
| 1777719821 | 15° C | 42% | 1022 hPa | - | - | - | - |
| 1777718921 | 13.89° C | 48% | 1022 hPa | - | - | - | - |
| 1777718022 | 13.89° C | 48% | 1022 hPa | - | - | - | - |
| 1777717118 | 15° C | 51% | 1022 hPa | - | - | - | - |
| 1777716221 | 15° C | 51% | 1022 hPa | - | - | - | - |
| 1777715318 | 12.78° C | 51% | 1022 hPa | - | - | - | - |
| 1777714502 | 12.78° C | 51% | 1022 hPa | - | - | - | - |
| 1777713521 | 12.78° C | 51% | 1023 hPa | - | - | - | - |
| 1777712621 | 12.78° C | 51% | 1023 hPa | - | - | - | - |
| 1777711729 | 12.22° C | 58% | 1023 hPa | - | - | - | - |
| 1777710822 | 12.22° C | 58% | 1023 hPa | - | - | - | - |
| 1777709921 | 12.78° C | 55% | 1023 hPa | - | - | - | - |
* Rain since midnight (hover to see other rain measurements)
** Current wind speed in m/s (hover to see current wind gust speed)